createdAt,value
2023-06-30T00:01:01.987Z,16.94
2023-06-30T00:04:05.081Z,16.86
2023-06-30T00:07:07.705Z,16.77
2023-06-30T00:10:11.048Z,16.77
2023-06-30T00:13:13.692Z,16.74
2023-06-30T00:16:16.663Z,16.68
2023-06-30T00:19:20.166Z,16.66
2023-06-30T00:22:23.071Z,16.56
2023-06-30T00:25:25.584Z,16.49
2023-06-30T00:28:28.628Z,16.45
2023-06-30T00:31:31.226Z,16.38
2023-06-30T00:34:34.094Z,16.35
2023-06-30T00:37:36.592Z,16.31
2023-06-30T00:40:39.786Z,16.26
2023-06-30T00:43:43.033Z,16.23
2023-06-30T00:46:45.928Z,16.19
2023-06-30T00:49:48.582Z,16.14
2023-06-30T00:52:51.846Z,16.13
2023-06-30T00:55:54.492Z,16.11
2023-06-30T00:58:58.436Z,16.06
2023-06-30T01:02:08.153Z,16.03
2023-06-30T01:05:40.026Z,16.01
2023-06-30T01:09:05.158Z,16.00
2023-06-30T01:12:08.585Z,15.93
2023-06-30T01:15:13.547Z,15.92
2023-06-30T01:18:20.952Z,15.88
2023-06-30T01:21:24.098Z,15.86
2023-06-30T01:24:34.995Z,15.86
2023-06-30T01:27:40.686Z,15.85
2023-06-30T01:30:45.013Z,15.94
2023-06-30T01:33:48.193Z,15.86
2023-06-30T01:36:51.228Z,15.80
2023-06-30T01:39:53.697Z,15.71
2023-06-30T01:42:57.981Z,15.64
2023-06-30T01:46:00.967Z,15.59
2023-06-30T01:49:04.319Z,15.55
2023-06-30T01:52:07.259Z,15.52
2023-06-30T01:55:10.484Z,15.49
2023-06-30T01:58:12.980Z,15.45
2023-06-30T02:01:16.140Z,15.43
2023-06-30T02:04:19.040Z,15.41
2023-06-30T02:07:24.524Z,15.41
2023-06-30T02:10:27.460Z,15.38
2023-06-30T02:13:30.577Z,15.37
2023-06-30T02:16:33.566Z,15.35
2023-06-30T02:19:36.075Z,15.35
2023-06-30T02:22:39.945Z,15.33
2023-06-30T02:25:42.780Z,15.27
2023-06-30T02:28:45.900Z,15.25
2023-06-30T02:31:48.726Z,15.23
2023-06-30T02:34:51.779Z,15.22
2023-06-30T02:37:54.299Z,15.18
2023-06-30T02:40:59.061Z,15.16
2023-06-30T02:44:01.517Z,15.11
2023-06-30T02:47:04.987Z,15.10
2023-06-30T02:50:09.795Z,15.09
2023-06-30T02:53:13.099Z,15.06
2023-06-30T02:56:15.650Z,15.03
2023-06-30T02:59:18.924Z,15.00
2023-06-30T03:02:21.755Z,14.99
2023-06-30T03:05:25.056Z,14.99
2023-06-30T03:08:27.714Z,15.01
2023-06-30T03:11:30.630Z,15.00
2023-06-30T03:14:33.185Z,15.05
2023-06-30T03:17:37.847Z,15.06
2023-06-30T03:20:40.497Z,15.09
2023-06-30T03:23:43.402Z,15.12
2023-06-30T03:26:46.854Z,15.25
2023-06-30T03:29:49.875Z,15.25
2023-06-30T03:32:52.554Z,15.28
2023-06-30T03:35:55.350Z,15.33
2023-06-30T03:38:57.945Z,15.41
2023-06-30T03:42:00.723Z,15.49
2023-06-30T03:45:03.440Z,15.58
2023-06-30T03:48:07.335Z,15.66
2023-06-30T03:51:10.376Z,16.06
2023-06-30T03:54:13.216Z,16.18
2023-06-30T03:57:15.792Z,16.17
2023-06-30T04:00:19.036Z,16.27
2023-06-30T04:03:24.288Z,16.27
2023-06-30T04:06:28.353Z,16.30
2023-06-30T04:09:31.272Z,16.39
2023-06-30T04:12:33.838Z,16.51
2023-06-30T04:15:36.965Z,16.53
2023-06-30T04:18:39.613Z,16.62
2023-06-30T04:21:42.569Z,16.66
2023-06-30T04:24:45.020Z,16.82
2023-06-30T04:27:47.890Z,16.87
2023-06-30T04:30:50.376Z,16.95
2023-06-30T04:33:53.158Z,17.09
2023-06-30T04:36:55.714Z,17.22
2023-06-30T04:39:59.391Z,17.47
2023-06-30T04:43:02.051Z,17.49
2023-06-30T04:46:05.210Z,17.53
2023-06-30T04:49:07.888Z,17.66
2023-06-30T04:52:10.880Z,17.80
2023-06-30T04:55:16.049Z,17.92
2023-06-30T04:58:19.492Z,18.05
2023-06-30T05:01:22.031Z,18.15
2023-06-30T05:04:24.972Z,18.26
2023-06-30T05:07:27.735Z,18.42
2023-06-30T05:10:30.630Z,18.58
2023-06-30T05:13:33.304Z,18.63
2023-06-30T05:16:36.338Z,18.80
2023-06-30T05:19:39.088Z,18.91
2023-06-30T05:22:41.996Z,19.03
2023-06-30T05:25:44.777Z,19.33
2023-06-30T05:29:00.100Z,19.41
2023-06-30T05:32:08.633Z,19.50
2023-06-30T05:35:11.542Z,19.70
2023-06-30T05:38:14.076Z,19.85
2023-06-30T05:41:16.889Z,19.90
2023-06-30T05:44:19.424Z,20.12
2023-06-30T05:47:22.343Z,20.18
2023-06-30T05:50:25.135Z,20.27
2023-06-30T05:53:27.993Z,20.30
2023-06-30T05:56:31.093Z,20.30
2023-06-30T05:59:35.059Z,20.36
2023-06-30T06:02:38.236Z,20.48
2023-06-30T06:05:41.288Z,20.63
2023-06-30T06:08:45.697Z,20.77
2023-06-30T06:11:48.640Z,21.06
2023-06-30T06:14:51.401Z,21.29
2023-06-30T06:17:54.528Z,21.35
2023-06-30T06:20:57.919Z,21.41
2023-06-30T06:24:00.842Z,21.64
2023-06-30T06:27:03.472Z,21.71
2023-06-30T06:30:06.886Z,21.86
2023-06-30T06:33:09.549Z,22.03
2023-06-30T06:36:12.403Z,22.14
2023-06-30T06:39:15.578Z,22.35
2023-06-30T06:42:18.474Z,22.49
2023-06-30T06:45:24.519Z,22.71
2023-06-30T06:48:29.330Z,22.96
2023-06-30T06:51:32.035Z,22.92
2023-06-30T06:54:34.878Z,22.91
2023-06-30T06:57:37.527Z,23.05
2023-06-30T07:00:40.469Z,23.04
2023-06-30T07:03:42.990Z,23.18
2023-06-30T07:06:45.848Z,23.35
2023-06-30T07:09:48.335Z,23.58
2023-06-30T07:12:53.322Z,23.85
2023-06-30T07:15:55.919Z,23.93
2023-06-30T07:18:58.848Z,24.01
2023-06-30T07:22:01.479Z,24.14
2023-06-30T07:25:07.549Z,24.45
2023-06-30T07:28:10.285Z,24.67
2023-06-30T07:31:13.422Z,24.75
2023-06-30T07:34:19.409Z,24.87
2023-06-30T07:37:22.317Z,25.07
2023-06-30T07:40:25.043Z,25.34
2023-06-30T07:43:28.574Z,25.77
2023-06-30T07:46:32.417Z,26.53
2023-06-30T07:49:35.423Z,27.71
2023-06-30T07:55:51.994Z,28.33
2023-06-30T07:58:54.616Z,29.05
2023-06-30T08:01:57.625Z,28.70
2023-06-30T08:05:00.635Z,28.84
2023-06-30T08:08:04.091Z,29.29
2023-06-30T08:11:07.613Z,29.55
2023-06-30T08:14:10.125Z,29.44
2023-06-30T08:17:12.896Z,30.36
2023-06-30T08:20:24.824Z,30.63
2023-06-30T08:23:28.107Z,30.90
2023-06-30T08:26:30.705Z,30.73
2023-06-30T08:29:33.548Z,31.60
2023-06-30T08:32:36.063Z,31.60
2023-06-30T08:35:38.936Z,31.47
2023-06-30T08:38:41.683Z,31.69
2023-06-30T08:41:46.643Z,32.26
2023-06-30T08:44:53.703Z,32.84
2023-06-30T08:48:08.226Z,33.48
2023-06-30T08:51:11.847Z,32.32
2023-06-30T08:54:14.860Z,32.26
2023-06-30T08:57:18.739Z,31.67
2023-06-30T09:00:21.829Z,31.89
2023-06-30T09:03:24.917Z,32.14
2023-06-30T09:06:28.280Z,32.75
2023-06-30T09:09:38.930Z,32.23
2023-06-30T09:12:47.694Z,32.49
2023-06-30T09:15:51.380Z,33.49
2023-06-30T09:18:54.449Z,31.45
2023-06-30T09:21:58.157Z,32.22
2023-06-30T09:25:01.123Z,32.85
2023-06-30T09:28:09.872Z,33.61
2023-06-30T09:31:13.658Z,33.90
2023-06-30T09:34:16.263Z,34.64
2023-06-30T09:37:19.177Z,35.04
2023-06-30T09:40:26.072Z,34.75
2023-06-30T09:43:29.288Z,34.24
2023-06-30T09:46:32.225Z,34.35
2023-06-30T09:49:35.322Z,34.25
2023-06-30T09:52:38.778Z,35.33
2023-06-30T09:55:50.606Z,35.06
2023-06-30T09:59:00.938Z,34.99
2023-06-30T10:02:04.225Z,33.66
2023-06-30T10:05:08.491Z,35.29
2023-06-30T10:08:13.671Z,35.40
2023-06-30T10:11:16.998Z,36.17
2023-06-30T10:14:29.369Z,36.94
2023-06-30T10:17:33.563Z,36.03
2023-06-30T10:20:47.236Z,36.95
2023-06-30T10:23:53.215Z,37.13
2023-06-30T10:26:56.530Z,37.07
2023-06-30T10:29:59.480Z,35.54
2023-06-30T10:33:02.230Z,35.20
2023-06-30T10:36:08.975Z,35.21
2023-06-30T10:39:12.270Z,36.24
2023-06-30T10:42:17.019Z,35.99
2023-06-30T10:45:21.382Z,36.24
2023-06-30T10:48:28.604Z,36.26
2023-06-30T10:51:38.017Z,36.70
2023-06-30T10:54:47.638Z,37.48
2023-06-30T10:57:54.752Z,38.33
2023-06-30T11:01:07.323Z,37.72
2023-06-30T11:04:09.848Z,38.88
2023-06-30T11:07:29.396Z,38.92
2023-06-30T11:10:37.502Z,36.99
2023-06-30T11:13:41.354Z,37.47
2023-06-30T11:17:05.162Z,38.97
2023-06-30T11:20:07.962Z,37.84
2023-06-30T11:23:19.067Z,38.32
2023-06-30T11:26:21.975Z,37.86
2023-06-30T11:29:24.777Z,37.40
2023-06-30T11:32:29.362Z,36.14
2023-06-30T11:35:33.809Z,36.03
2023-06-30T11:38:41.974Z,37.32
2023-06-30T11:41:45.071Z,38.83
2023-06-30T11:44:51.867Z,37.12
2023-06-30T11:47:57.154Z,38.30
2023-06-30T11:51:03.602Z,38.74
2023-06-30T11:54:07.834Z,39.02
2023-06-30T11:57:11.024Z,39.25
2023-06-30T12:00:26.376Z,38.95
2023-06-30T12:03:31.252Z,39.49
2023-06-30T12:06:37.156Z,39.03
2023-06-30T12:09:44.562Z,39.81
2023-06-30T12:13:00.042Z,40.39
2023-06-30T12:16:04.448Z,37.88
2023-06-30T12:19:09.462Z,39.08
2023-06-30T12:22:13.964Z,38.36
2023-06-30T12:25:17.378Z,39.10
2023-06-30T12:28:20.014Z,39.60
2023-06-30T12:31:32.700Z,39.58
2023-06-30T12:34:36.971Z,39.78
2023-06-30T12:37:40.619Z,40.94
2023-06-30T12:40:43.233Z,41.24
2023-06-30T12:43:46.344Z,38.40
2023-06-30T12:47:09.335Z,38.25
2023-06-30T12:50:14.429Z,41.35
2023-06-30T12:53:17.009Z,41.11
2023-06-30T12:56:19.824Z,38.67
2023-06-30T12:59:22.452Z,40.63
2023-06-30T13:02:25.708Z,41.26
2023-06-30T13:05:28.329Z,41.05
2023-06-30T13:08:31.494Z,39.72
2023-06-30T13:11:34.748Z,39.83
2023-06-30T13:14:37.760Z,40.49
2023-06-30T13:17:40.681Z,42.24
2023-06-30T13:20:43.682Z,39.51
2023-06-30T13:23:46.604Z,40.38
2023-06-30T13:26:49.557Z,40.33
2023-06-30T13:29:52.810Z,40.51
2023-06-30T13:32:57.233Z,40.93
2023-06-30T13:36:00.789Z,40.09
2023-06-30T13:39:04.470Z,42.39
2023-06-30T13:42:08.221Z,43.47
2023-06-30T13:45:14.677Z,41.48
2023-06-30T13:48:17.485Z,39.65
2023-06-30T13:51:22.242Z,41.30
2023-06-30T13:54:25.285Z,40.25
2023-06-30T13:57:28.346Z,40.05
2023-06-30T14:00:30.973Z,35.72
2023-06-30T14:03:34.559Z,35.73
2023-06-30T14:06:37.294Z,38.79
2023-06-30T14:09:42.633Z,38.45
2023-06-30T14:12:45.594Z,38.98
2023-06-30T14:15:48.679Z,39.36
2023-06-30T14:18:51.551Z,35.77
2023-06-30T14:21:54.641Z,33.81
2023-06-30T14:24:57.365Z,32.78
2023-06-30T14:28:00.251Z,33.77
2023-06-30T14:31:02.943Z,34.05
2023-06-30T14:34:06.077Z,34.72
2023-06-30T14:37:12.144Z,36.36
2023-06-30T14:40:15.132Z,37.70
2023-06-30T14:43:17.830Z,35.39
2023-06-30T14:46:20.883Z,32.85
2023-06-30T14:49:23.657Z,32.17
2023-06-30T14:52:26.468Z,31.74
2023-06-30T14:55:29.040Z,31.08
2023-06-30T14:58:31.910Z,33.56
2023-06-30T15:01:34.617Z,36.85
2023-06-30T15:04:37.719Z,37.94
2023-06-30T15:07:40.326Z,38.23
2023-06-30T15:10:43.273Z,39.26
2023-06-30T15:13:45.883Z,40.10
2023-06-30T15:16:49.488Z,40.26
2023-06-30T15:19:52.672Z,39.65
2023-06-30T15:22:55.911Z,39.67
2023-06-30T15:25:58.586Z,39.46
2023-06-30T15:29:01.560Z,38.65
2023-06-30T15:32:19.928Z,36.85
2023-06-30T15:35:25.677Z,36.62
2023-06-30T15:38:28.352Z,36.86
2023-06-30T15:41:31.244Z,37.96
2023-06-30T15:44:33.957Z,34.72
2023-06-30T15:47:36.982Z,33.66
2023-06-30T15:50:41.498Z,35.25
2023-06-30T15:53:44.394Z,34.41
2023-06-30T15:56:47.109Z,34.81
2023-06-30T15:59:49.903Z,35.70
2023-06-30T16:02:54.015Z,36.36
2023-06-30T16:05:57.165Z,36.25
2023-06-30T16:08:59.756Z,34.67
2023-06-30T16:12:02.688Z,34.10
2023-06-30T16:15:08.859Z,34.58
2023-06-30T16:18:11.666Z,35.74
2023-06-30T16:21:14.306Z,35.40
2023-06-30T16:24:20.297Z,31.98
2023-06-30T16:27:23.167Z,30.58
2023-06-30T16:30:33.353Z,30.17
2023-06-30T16:33:36.399Z,31.38
2023-06-30T16:36:40.987Z,32.35
2023-06-30T16:39:43.986Z,32.35
2023-06-30T16:42:48.188Z,30.96
2023-06-30T16:45:51.441Z,29.83
2023-06-30T16:48:54.589Z,29.22
2023-06-30T16:51:57.154Z,28.70
2023-06-30T16:54:59.898Z,28.53
2023-06-30T16:58:02.477Z,28.49
2023-06-30T17:01:05.390Z,28.43
2023-06-30T17:04:08.006Z,28.21
2023-06-30T17:07:11.564Z,28.19
2023-06-30T17:10:14.763Z,28.10
2023-06-30T17:13:17.589Z,28.00
2023-06-30T17:16:22.350Z,27.85
2023-06-30T17:19:28.534Z,27.72
2023-06-30T17:22:31.219Z,27.74
2023-06-30T17:25:34.143Z,27.58
2023-06-30T17:28:36.875Z,27.49
2023-06-30T17:31:39.661Z,27.46
2023-06-30T17:34:42.280Z,27.34
2023-06-30T17:37:45.246Z,27.27
2023-06-30T17:40:47.944Z,27.21
2023-06-30T17:43:51.260Z,27.12
2023-06-30T17:46:54.068Z,27.04
2023-06-30T17:49:57.134Z,27.03
2023-06-30T17:52:59.939Z,26.88
2023-06-30T17:56:02.986Z,26.69
2023-06-30T17:59:05.669Z,26.67
2023-06-30T18:02:08.767Z,26.53
2023-06-30T18:05:11.910Z,26.50
2023-06-30T18:08:14.688Z,26.27
2023-06-30T18:11:17.683Z,26.08
2023-06-30T18:14:20.412Z,25.91
2023-06-30T18:17:23.415Z,25.78
2023-06-30T18:20:27.030Z,25.61
2023-06-30T18:23:29.900Z,25.47
2023-06-30T18:26:32.478Z,25.33
2023-06-30T18:29:35.398Z,25.21
2023-06-30T18:32:37.985Z,25.16
2023-06-30T18:35:40.853Z,24.98
2023-06-30T18:38:43.312Z,24.90
2023-06-30T18:41:46.187Z,24.72
2023-06-30T18:44:49.306Z,24.58
2023-06-30T18:47:52.260Z,24.49
2023-06-30T18:50:54.967Z,24.39
2023-06-30T18:53:57.811Z,24.24
2023-06-30T18:57:00.488Z,24.21
2023-06-30T19:00:04.508Z,24.07
2023-06-30T19:03:12.958Z,23.93
2023-06-30T19:06:16.303Z,23.86
2023-06-30T19:09:19.035Z,23.80
2023-06-30T19:12:21.867Z,23.76
2023-06-30T19:15:24.423Z,23.77
2023-06-30T19:18:27.265Z,23.83
2023-06-30T19:21:29.909Z,23.74
2023-06-30T19:24:33.219Z,23.68
2023-06-30T19:27:35.784Z,23.68
2023-06-30T19:30:38.593Z,23.66
2023-06-30T19:33:41.530Z,23.60
2023-06-30T19:36:44.560Z,23.60
2023-06-30T19:39:47.223Z,23.55
2023-06-30T19:42:50.281Z,23.50
2023-06-30T19:45:52.863Z,23.45
2023-06-30T19:48:55.672Z,23.38
2023-06-30T19:51:58.828Z,23.34
2023-06-30T19:55:01.607Z,23.26
2023-06-30T19:58:04.252Z,23.21
2023-06-30T20:01:07.081Z,23.15
2023-06-30T20:04:13.027Z,23.11
2023-06-30T20:07:15.616Z,23.06
2023-06-30T20:10:18.903Z,23.03
2023-06-30T20:13:21.394Z,22.99
2023-06-30T20:16:24.121Z,22.91
2023-06-30T20:19:26.881Z,22.82
2023-06-30T20:22:31.468Z,22.77
2023-06-30T20:25:34.205Z,22.73
2023-06-30T20:28:37.228Z,22.61
2023-06-30T20:31:39.812Z,22.55
2023-06-30T20:34:44.066Z,22.49
2023-06-30T20:37:47.490Z,22.44
2023-06-30T20:40:51.128Z,22.39
2023-06-30T20:43:54.134Z,22.31
2023-06-30T20:46:57.261Z,22.29
2023-06-30T20:49:59.897Z,22.23
2023-06-30T20:53:03.686Z,22.18
2023-06-30T20:56:06.484Z,22.13
2023-06-30T20:59:09.422Z,22.08
2023-06-30T21:02:11.968Z,22.10
2023-06-30T21:05:14.975Z,22.03
2023-06-30T21:08:17.562Z,21.96
2023-06-30T21:11:20.956Z,21.87
2023-06-30T21:14:24.708Z,21.78
2023-06-30T21:17:27.614Z,21.69
2023-06-30T21:20:30.211Z,21.61
2023-06-30T21:23:33.531Z,21.51
2023-06-30T21:26:36.177Z,21.44
2023-06-30T21:29:39.528Z,21.39
2023-06-30T21:32:42.163Z,21.34
2023-06-30T21:35:45.014Z,21.31
2023-06-30T21:38:47.622Z,21.23
2023-06-30T21:41:50.503Z,21.15
2023-06-30T21:44:53.154Z,21.11
2023-06-30T21:47:55.968Z,21.08
2023-06-30T21:50:58.515Z,21.06
2023-06-30T21:54:05.440Z,21.05
2023-06-30T21:57:07.870Z,21.00
2023-06-30T22:00:11.065Z,20.90
2023-06-30T22:03:13.608Z,20.81
2023-06-30T22:06:16.560Z,20.75
2023-06-30T22:09:18.970Z,20.70
2023-06-30T22:12:21.728Z,20.65
2023-06-30T22:15:25.257Z,20.58
2023-06-30T22:18:28.041Z,20.52
2023-06-30T22:21:30.626Z,20.58
2023-06-30T22:24:33.463Z,20.56
2023-06-30T22:27:36.002Z,20.44
2023-06-30T22:30:38.789Z,20.35
2023-06-30T22:33:41.278Z,20.29
2023-06-30T22:36:44.712Z,20.21
2023-06-30T22:39:48.274Z,20.15
2023-06-30T22:42:51.041Z,20.10
2023-06-30T22:45:53.528Z,20.05
2023-06-30T22:48:56.348Z,20.02
2023-06-30T22:51:58.931Z,19.98
2023-06-30T22:55:02.188Z,19.98
2023-06-30T22:58:04.768Z,20.06
2023-06-30T23:01:08.542Z,20.01
2023-06-30T23:04:11.887Z,19.92
2023-06-30T23:07:14.942Z,19.85
2023-06-30T23:10:17.604Z,19.78
2023-06-30T23:13:20.367Z,19.69
2023-06-30T23:16:23.765Z,19.62
2023-06-30T23:19:27.668Z,19.57
2023-06-30T23:22:30.876Z,19.52
2023-06-30T23:25:35.112Z,19.47
2023-06-30T23:28:38.804Z,19.43
2023-06-30T23:31:42.049Z,19.38
2023-06-30T23:34:44.784Z,19.35
2023-06-30T23:37:47.596Z,19.31
2023-06-30T23:40:50.088Z,19.22
2023-06-30T23:43:54.037Z,19.17
2023-06-30T23:46:56.698Z,19.10
2023-06-30T23:49:59.651Z,19.08
2023-06-30T23:53:02.135Z,19.05
2023-06-30T23:56:05.097Z,19.01
2023-06-30T23:59:07.918Z,19.01
